Springfield, Illinois
Current Conditions -  °F | °C
As of 2:52 PM on Friday 28 Nov 2014 (Local Time) from KSPI Reporting Station
Clear Clear  
Wind Chill: 31°   Ceiling: Unl
Heat Index: 39°   Visibility: 10mi
Dew Point: 31°   Wind: 15mph
Humidity: 73%   Direction: 160°SSE
Pressure: 29.97"   Gusts: NA
Location:  39.8°N, 89.64°W
Report Text: KSPI 282052Z 16013KT 10SM CLR 04/M01 A2997 RMK AO2 PK WND 18027/2003 SLP154 T00391006 56032
Loading
Personal Weather Stations






























Interactive Weather Map New forecast layout! Learn more

10-Day Weather Forecast

Advertisements
Track Severe Weather on mobile